Time;durP1;ratioP1;P1;durP2;ratioP2;P2;SDS_P1;SDS_P2;PMS_P1;PMS_P2;Temp;Humidity;BMP_temperature;BMP_pressure;BME280_temperature;BME280_humidity;BME280_pressure;Samples;Min_cycle;Max_cycle;Signal;HPM_P1;HPM_P2
2022/11/16 00:01:23;;;;;;;16.70;12.40;;;13.10;99.90;;;;;;6191681;23;20001;-94
2022/11/16 00:03:59;;;;;;;17.48;12.93;;;13.10;99.90;;;;;;6191533;23;20088;-93
2022/11/16 00:06:46;;;;;;;16.90;12.95;;;13.10;99.90;;;;;;6218303;23;20043;-94
2022/11/16 00:09:28;;;;;;;17.50;12.98;;;13.10;99.90;;;;;;6191532;23;20015;-94
2022/11/16 00:12:15;;;;;;;;;;;;;;;;;;;;;
2022/11/16 00:14:59;;;;;;;17.23;13.07;;;13.10;99.90;;;;;;6221706;23;20393;-93
2022/11/16 00:17:32;;;;;;;19.10;13.65;;;13.10;99.90;;;;;;6211314;23;19997;-94
2022/11/16 00:19:58;;;;;;;19.50;13.85;;;13.10;99.90;;;;;;6222047;23;20004;-95
2022/11/16 00:22:33;;;;;;;21.52;14.45;;;13.10;99.90;;;;;;6217246;23;20005;-94
2022/11/16 00:25:05;;;;;;;20.05;14.30;;;13.10;99.90;;;;;;6191137;23;20004;-94
2022/11/16 00:30:33;;;;;;;21.75;14.60;;;13.10;99.90;;;;;;6185230;23;20005;-94
2022/11/16 00:33:05;;;;;;;19.63;15.10;;;13.10;99.90;;;;;;6167224;23;20005;-93
2022/11/16 00:36:11;;;;;;;23.73;16.85;;;13.10;99.90;;;;;;6191916;23;20000;-93
2022/11/16 00:38:49;;;;;;;17.25;13.80;;;13.10;99.90;;;;;;6191093;23;20011;-95
2022/11/16 00:41:21;;;;;;;23.23;15.85;;;13.10;99.90;;;;;;6190570;23;20017;-93
2022/11/16 00:43:53;;;;;;;22.40;15.07;;;13.10;99.90;;;;;;6216202;23;20000;-93
2022/11/16 00:46:29;;;;;;;23.05;15.90;;;13.10;99.90;;;;;;6191155;23;20327;-93
2022/11/16 00:48:57;;;;;;;24.23;16.30;;;13.10;99.90;;;;;;6165451;23;20020;-93
2022/11/16 00:51:55;;;;;;;22.58;16.75;;;13.00;99.90;;;;;;6190980;23;20058;-94
2022/11/16 00:54:38;;;;;;;25.20;16.05;;;13.00;99.90;;;;;;6167383;23;20012;-92
2022/11/16 00:57:20;;;;;;;;;;;;;;;;;;;;;
2022/11/16 00:59:56;;;;;;;23.48;15.30;;;13.00;99.90;;;;;;6193405;23;20076;-93
2022/11/16 01:02:35;;;;;;;;;;;;;;;;;;;;;
2022/11/16 01:05:33;;;;;;;;;;;;;;;;;;;;;
2022/11/16 01:08:05;;;;;;;23.10;16.25;;;13.00;99.90;;;;;;6217116;23;20103;-91
2022/11/16 01:10:54;;;;;;;26.85;16.92;;;13.00;99.90;;;;;;6166646;23;20005;-92
2022/11/16 01:13:26;;;;;;;25.70;17.08;;;13.00;99.90;;;;;;6167320;23;20019;-92
2022/11/16 01:19:22;;;;;;;29.63;18.27;;;13.00;99.90;;;;;;6195098;23;20577;-91
2022/11/16 01:21:49;;;;;;;27.45;18.10;;;13.00;99.90;;;;;;6216043;23;20142;-89
2022/11/16 01:24:18;;;;;;;28.35;19.23;;;12.90;99.90;;;;;;6215326;23;20005;-90
2022/11/16 01:26:49;;;;;;;25.60;17.67;;;12.90;99.90;;;;;;6215363;23;20080;-91
2022/11/16 01:29:28;;;;;;;30.35;17.77;;;12.90;99.90;;;;;;6215497;23;20089;-91
2022/11/16 01:32:32;;;;;;;25.02;18.58;;;12.90;99.90;;;;;;6167491;23;20030;-91
2022/11/16 01:34:57;;;;;;;30.63;18.90;;;12.90;99.90;;;;;;6213450;23;20418;-90
2022/11/16 01:37:48;;;;;;;24.90;17.92;;;12.80;99.90;;;;;;6215137;23;20070;-90
2022/11/16 01:40:16;;;;;;;27.75;19.05;;;12.80;99.90;;;;;;6190374;23;20004;-90
2022/11/16 01:42:51;;;;;;;27.08;18.50;;;12.80;99.90;;;;;;6160189;23;20017;-90
2022/11/16 01:45:42;;;;;;;30.70;18.88;;;12.80;99.90;;;;;;6161771;23;20059;-89
2022/11/16 01:48:19;;;;;;;25.00;18.55;;;12.80;99.90;;;;;;6184872;23;20009;-89
2022/11/16 01:50:50;;;;;;;25.42;17.25;;;12.80;99.90;;;;;;6185161;23;20008;-89
2022/11/16 01:53:29;;;;;;;23.38;16.13;;;12.80;99.90;;;;;;6185805;23;20013;-90
2022/11/16 01:56:25;;;;;;;25.83;18.00;;;12.90;99.90;;;;;;6185706;23;20005;-89
2022/11/16 01:59:09;;;;;;;26.23;16.40;;;12.80;99.90;;;;;;6186831;23;20032;-90
2022/11/16 02:01:37;;;;;;;24.30;15.80;;;12.90;99.90;;;;;;6161571;23;20024;-90
2022/11/16 02:04:22;;;;;;;24.70;16.40;;;12.90;99.90;;;;;;6187144;23;20320;-92
2022/11/16 02:07:24;;;;;;;;;;;;;;;;;;;;;
2022/11/16 02:10:34;;;;;;;25.48;16.48;;;12.90;99.90;;;;;;6188772;23;20072;-90
2022/11/16 02:13:38;;;;;;;23.23;15.90;;;12.90;99.90;;;;;;6156512;23;20005;-92
2022/11/16 02:16:37;;;;;;;21.63;15.07;;;12.80;99.90;;;;;;6156340;23;20453;-92
2022/11/16 02:19:26;;;;;;;22.20;15.48;;;12.80;99.90;;;;;;6173676;23;20008;-91
2022/11/16 02:22:28;;;;;;;;;;;;;;;;;;;;;
2022/11/16 02:25:32;;;;;;;25.70;17.33;;;12.80;99.90;;;;;;6188386;23;20072;-91
2022/11/16 02:28:04;;;;;;;25.65;17.55;;;12.80;99.90;;;;;;6172800;23;20063;-92
2022/11/16 02:30:54;;;;;;;;;;;;;;;;;;;;;
2022/11/16 02:33:32;;;;;;;26.20;17.95;;;12.80;99.90;;;;;;6188470;23;20068;-92
2022/11/16 02:36:42;;;;;;;;;;;;;;;;;;;;;
2022/11/16 02:39:39;;;;;;;21.77;16.15;;;12.80;99.90;;;;;;6187587;23;20076;-91
2022/11/16 02:42:58;;;;;;;;;;;;;;;;;;;;;
2022/11/16 02:45:46;;;;;;;21.08;15.90;;;12.80;99.90;;;;;;6155612;23;20085;-92
2022/11/16 02:48:37;;;;;;;23.15;15.85;;;12.80;99.90;;;;;;6211878;23;20061;-92
2022/11/16 02:51:34;;;;;;;;;;;;;;;;;;;;;
2022/11/16 02:54:22;;;;;;;25.65;18.33;;;12.80;99.90;;;;;;6187980;23;20072;-91
2022/11/16 02:57:32;;;;;;;25.88;18.60;;;12.80;99.90;;;;;;6186540;23;20032;-91
2022/11/16 03:03:35;;;;;;;;;;;12.80;99.90;;;;;;6188726;23;20001;-91
2022/11/16 03:09:26;;;;;;;25.10;18.33;;;12.70;99.90;;;;;;6174678;23;20013;-91
2022/11/16 03:12:07;;;;;;;26.95;18.40;;;12.70;99.90;;;;;;6186688;23;20001;-91
2022/11/16 03:15:41;;;;;;;26.15;17.80;;;12.70;99.90;;;;;;6164103;23;20084;-91
2022/11/16 03:18:11;;;;;;;;;;;;;;;;;;;;;
2022/11/16 03:20:41;;;;;;;33.22;20.73;;;12.80;99.90;;;;;;6187915;23;20085;-89
2022/11/16 03:23:23;;;;;;;29.20;19.42;;;12.70;99.90;;;;;;6186311;23;20019;-90
2022/11/16 03:25:59;;;;;;;30.33;21.05;;;12.80;99.90;;;;;;6186517;23;20005;-90
2022/11/16 03:29:58;;;;;;;;;;;;;;;;;;;;;
2022/11/16 03:32:08;;;;;;;35.42;22.65;;;12.80;99.90;;;;;;6179052;23;20005;-90
2022/11/16 03:34:45;;;;;;;38.83;23.75;;;12.70;99.90;;;;;;6186209;23;20039;-88
2022/11/16 03:37:26;;;;;;;32.65;21.67;;;12.70;99.90;;;;;;6186392;23;20001;-90
2022/11/16 03:40:21;;;;;;;38.00;23.13;;;12.70;99.90;;;;;;6186147;23;20001;-91
2022/11/16 03:43:04;;;;;;;41.60;23.20;;;12.70;99.90;;;;;;6184706;23;20041;-92
2022/11/16 03:46:10;;;;;;;;;;;;;;;;;;;;;
2022/11/16 03:48:39;;;;;;;34.63;21.08;;;12.70;99.90;;;;;;6187344;23;20092;-90
2022/11/16 03:51:14;;;;;;;32.30;21.40;;;12.60;99.90;;;;;;6186319;23;20419;-90
2022/11/16 03:54:21;;;;;;;37.35;21.90;;;12.60;99.90;;;;;;6185780;23;20005;-90
2022/11/16 03:57:16;;;;;;;35.83;23.08;;;12.60;99.90;;;;;;6168343;23;20009;-90
2022/11/16 03:59:45;;;;;;;39.33;23.52;;;12.60;99.90;;;;;;6185957;23;20001;-90
2022/11/16 04:02:21;;;;;;;31.77;21.88;;;12.60;99.90;;;;;;6186222;23;19997;-91
2022/11/16 04:25:23;;;;;;;26.48;18.15;;;12.70;99.90;;;;;;6186877;23;20012;-89
2022/11/16 04:28:15;;;;;;;27.20;19.02;;;12.70;99.90;;;;;;6185881;23;20013;-90
2022/11/16 04:39:13;;;;;;;22.55;16.67;;;12.70;99.90;;;;;;6185670;23;20100;-91
2022/11/16 04:47:45;;;;;;;;;;;;;;;;;;;;;
2022/11/16 04:50:20;;;;;;;24.80;17.02;;;12.70;99.90;;;;;;6156204;23;20076;-90
2022/11/16 04:52:56;;;;;;;;;;;;;;;;;;;;;
2022/11/16 04:55:25;;;;;;;21.45;17.27;;;12.70;99.90;;;;;;6156343;23;20076;-90
2022/11/16 04:57:51;;;;;;;23.88;17.15;;;12.70;99.90;;;;;;6156202;23;20001;-92
2022/11/16 05:00:30;;;;;;;;;;;;;;;;;;;;;
2022/11/16 05:02:59;;;;;;;23.60;17.70;;;12.70;99.90;;;;;;6157139;23;20076;-89
2022/11/16 05:05:33;;;;;;;27.58;19.23;;;12.70;99.90;;;;;;6156002;23;20002;-91
2022/11/16 05:08:10;;;;;;;25.90;18.50;;;12.60;99.90;;;;;;6131859;23;20460;-91
2022/11/16 05:10:48;;;;;;;;;;;;;;;;;;;;;
2022/11/16 05:13:14;;;;;;;23.92;16.77;;;12.60;99.90;;;;;;6157158;23;20076;-91
2022/11/16 05:15:50;;;;;;;26.45;18.05;;;12.60;99.90;;;;;;6155281;23;20458;-89
2022/11/16 05:21:50;;;;;;;22.05;16.90;;;12.60;99.90;;;;;;6156183;23;20037;-91
2022/11/16 05:24:43;;;;;;;;;;;;;;;;;;;;;
2022/11/16 05:27:45;;;;;;;17.70;12.73;;;12.60;99.90;;;;;;6135678;23;20357;-90
2022/11/16 05:30:31;;;;;;;;;;;;;;;;;;;;;
2022/11/16 05:33:16;;;;;;;15.60;11.45;;;12.50;99.90;;;;;;6155395;23;20080;-90
2022/11/16 05:39:21;;;;;;;;;;;;;;;;;;;;;
2022/11/16 05:41:58;;;;;;;15.82;10.65;;;12.50;99.90;;;;;;6166564;23;20095;-92
2022/11/16 05:44:40;;;;;;;13.40;11.25;;;12.50;99.90;;;;;;6161353;23;20001;-93
2022/11/16 05:47:39;;;;;;;;;;;;;;;;;;;;;
2022/11/16 05:53:15;;;;;;;;;;;12.50;99.90;;;;;;6216515;23;20188;-92
2022/11/16 05:55:46;;;;;;;14.85;9.98;;;12.40;99.90;;;;;;6190402;23;19903;-93
2022/11/16 05:58:25;;;;;;;15.13;10.27;;;12.40;99.90;;;;;;6189711;23;20004;-91
2022/11/16 06:00:56;;;;;;;13.20;8.15;;;12.40;99.90;;;;;;6167292;23;20016;-91
2022/11/16 06:03:39;;;;;;;;;;;;;;;;;;;;;
2022/11/16 06:06:29;;;;;;;;;;;;;;;;;;;;;
2022/11/16 06:09:03;;;;;;;12.18;6.90;;;12.30;99.90;;;;;;6184877;23;20084;-91
2022/11/16 06:11:30;;;;;;;13.80;6.57;;;12.30;99.90;;;;;;6185518;23;20032;-92
2022/11/16 06:14:21;;;;;;;11.35;6.47;;;12.30;99.90;;;;;;6184875;23;20392;-93
2022/11/16 06:17:39;;;;;;;;;;;;;;;;;;;;;
2022/11/16 06:20:31;;;;;;;14.23;6.25;;;12.20;99.90;;;;;;6207910;23;20085;-92
2022/11/16 06:23:43;;;;;;;11.52;5.53;;;12.20;99.90;;;;;;6184807;23;20060;-93
2022/11/16 06:38:50;;;;;;;;;;;;;;;;;;;;;
2022/11/16 06:41:32;;;;;;;;;;;;;;;;;;;;;
2022/11/16 06:44:36;;;;;;;7.90;4.30;;;12.00;99.90;;;;;;6217707;23;20091;-92
2022/11/16 06:47:55;;;;;;;7.22;4.15;;;12.00;99.90;;;;;;6189195;23;20033;-93
2022/11/16 06:50:40;;;;;;;;;;;;;;;;;;;;;
2022/11/16 06:53:32;;;;;;;13.95;4.05;;;11.80;99.90;;;;;;6185596;23;20005;-93
2022/11/16 06:56:20;;;;;;;;;;;;;;;;;;;;;
2022/11/16 06:59:18;;;;;;;;;;;;;;;;;;;;;
2022/11/16 07:02:03;;;;;;;7.22;3.22;;;11.60;99.90;;;;;;6172573;23;20075;-91
2022/11/16 07:05:28;;;;;;;;;;;;;;;;;;;;;
2022/11/16 07:11:20;;;;;;;6.53;2.88;;;11.50;99.90;;;;;;6198212;23;20051;-92
2022/11/16 07:14:39;;;;;;;;;;;;;;;;;;;;;
2022/11/16 07:17:35;;;;;;;7.85;2.88;;;11.30;99.90;;;;;;6192859;23;20091;-94
2022/11/16 07:20:33;;;;;;;;;;;;;;;;;;;;;
2022/11/16 07:23:32;;;;;;;6.72;2.60;;;11.30;99.90;;;;;;6193888;23;20084;-94
2022/11/16 07:29:54;;;;;;;;;;;;;;;;;;;;;
2022/11/16 07:32:32;;;;;;;13.13;3.88;;;11.10;99.90;;;;;;6189172;23;20096;-93
2022/11/16 07:35:41;;;;;;;12.90;3.90;;;11.10;99.90;;;;;;6191711;23;20000;-94
2022/11/16 07:41:37;;;;;;;10.07;4.18;;;11.00;99.90;;;;;;6209638;23;20090;-94
2022/11/16 07:44:28;;;;;;;14.07;4.07;;;11.00;99.90;;;;;;6191079;23;20115;-93
2022/11/16 07:47:15;;;;;;;;;;;;;;;;;;;;;
2022/11/16 07:49:47;;;;;;;8.82;3.78;;;11.00;99.90;;;;;;6194374;23;20088;-92
2022/11/16 07:52:45;;;;;;;9.27;4.20;;;11.00;99.90;;;;;;6167140;23;20019;-92
2022/11/16 07:55:30;;;;;;;9.45;4.60;;;11.00;99.90;;;;;;6194436;23;20466;-93
2022/11/16 07:58:32;;;;;;;;;;;;;;;;;;;;;
2022/11/16 08:01:14;;;;;;;;;;;11.00;99.90;;;;;;6192734;23;20005;-92
2022/11/16 08:07:13;;;;;;;;;;;;;;;;;;;;;
2022/11/16 08:10:26;;;;;;;;;;;;;;;;;;;;;
2022/11/16 08:13:13;;;;;;;13.00;5.22;;;11.00;99.90;;;;;;6199634;23;20092;-90
2022/11/16 08:22:27;;;;;;;;;;;;;;;;;;;;;
2022/11/16 08:25:15;;;;;;;16.27;5.80;;;11.00;99.90;;;;;;6219378;23;20075;-91
2022/11/16 08:27:46;;;;;;;17.17;5.97;;;11.00;99.90;;;;;;6241519;22;20009;-90
2022/11/16 08:30:32;;;;;;;14.02;5.68;;;11.00;99.90;;;;;;6159262;23;20005;-90
2022/11/16 08:32:58;;;;;;;16.45;5.63;;;11.00;99.90;;;;;;6241382;22;19988;-91
2022/11/16 08:38:29;;;;;;;12.70;5.00;;;11.00;99.90;;;;;;6155643;23;20028;-83
2022/11/16 08:40:55;;;;;;;15.05;5.68;;;11.00;99.90;;;;;;6176863;23;20010;-84
2022/11/16 08:43:20;;;;;;;11.85;5.22;;;11.00;99.90;;;;;;6130054;23;20016;-85
2022/11/16 08:45:47;;;;;;;15.52;5.50;;;11.10;99.90;;;;;;6130223;23;20373;-84
2022/11/16 08:48:13;;;;;;;15.73;5.57;;;11.10;99.90;;;;;;6155434;23;20009;-89
2022/11/16 08:50:41;;;;;;;14.88;6.63;;;11.10;99.90;;;;;;6131023;23;20044;-84
2022/11/16 08:53:06;;;;;;;15.80;5.15;;;11.10;99.90;;;;;;6130186;23;20516;-87
2022/11/16 08:55:32;;;;;;;10.90;4.50;;;11.10;99.90;;;;;;6106093;23;20400;-86
2022/11/16 08:57:58;;;;;;;16.35;4.30;;;11.20;99.90;;;;;;6154968;23;20016;-84
2022/11/16 09:00:24;;;;;;;13.75;4.55;;;11.10;99.90;;;;;;6155246;23;20009;-84
2022/11/16 09:02:51;;;;;;;17.73;4.10;;;11.20;99.90;;;;;;6154650;23;20013;-85
2022/11/16 09:05:16;;;;;;;14.25;3.67;;;11.10;99.90;;;;;;6130306;23;20013;-86
2022/11/16 09:07:44;;;;;;;12.85;4.10;;;11.10;99.90;;;;;;6129176;23;20061;-86
2022/11/16 09:10:11;;;;;;;14.60;4.18;;;11.10;99.90;;;;;;6154118;23;20053;-86
2022/11/16 09:12:37;;;;;;;12.15;4.13;;;11.20;99.90;;;;;;6156125;23;20040;-85
2022/11/16 09:15:05;;;;;;;15.07;4.38;;;11.10;99.90;;;;;;6129365;23;20483;-86
2022/11/16 09:17:30;;;;;;;16.77;4.80;;;11.10;99.90;;;;;;6129891;23;20010;-86
2022/11/16 09:19:56;;;;;;;16.92;5.18;;;11.10;99.90;;;;;;6156577;23;20340;-88
2022/11/16 09:22:22;;;;;;;16.80;4.30;;;11.20;99.90;;;;;;6130289;23;20492;-85
2022/11/16 09:24:48;;;;;;;13.07;3.75;;;11.20;99.90;;;;;;6105764;23;20006;-84
2022/11/16 09:27:13;;;;;;;13.20;3.60;;;11.20;99.90;;;;;;6105840;23;20443;-86
2022/11/16 09:29:39;;;;;;;12.93;3.90;;;11.20;99.90;;;;;;6130323;23;20033;-88
2022/11/16 09:32:05;;;;;;;16.90;4.18;;;11.20;99.90;;;;;;6154758;23;20005;-87
2022/11/16 09:34:33;;;;;;;13.93;3.88;;;11.20;99.90;;;;;;6130140;23;20012;-84
2022/11/16 09:37:00;;;;;;;16.70;3.72;;;11.20;99.90;;;;;;6154914;23;20080;-88
2022/11/16 09:39:26;;;;;;;15.95;3.50;;;11.30;99.90;;;;;;6154474;23;20017;-87
2022/11/16 09:42:19;;;;;;;9.85;4.00;;;11.30;99.90;;;;;;6154765;23;20010;-87
2022/11/16 09:45:03;;;;;;;15.30;2.95;;;11.30;99.90;;;;;;6154513;23;20006;-87
2022/11/16 09:47:40;;;;;;;10.18;2.95;;;11.30;99.90;;;;;;6154726;23;20010;-87
2022/11/16 09:50:07;;;;;;;11.15;3.10;;;11.40;99.90;;;;;;6154721;23;19997;-85
2022/11/16 09:52:43;;;;;;;14.30;3.53;;;11.40;99.90;;;;;;6154546;23;20009;-85
2022/11/16 09:55:42;;;;;;;12.00;2.55;;;11.40;99.90;;;;;;6154505;23;20006;-86
2022/11/16 09:58:36;;;;;;;18.63;2.60;;;11.40;99.90;;;;;;6154801;23;20006;-86
2022/11/16 10:01:22;;;;;;;11.20;2.42;;;11.50;99.90;;;;;;6151246;23;20014;-86
2022/11/16 10:03:52;;;;;;;10.75;2.38;;;11.50;99.90;;;;;;6154543;23;20068;-86
2022/11/16 10:06:34;;;;;;;9.80;1.90;;;11.50;99.90;;;;;;6154500;23;20029;-87
2022/11/16 10:09:00;;;;;;;13.00;3.15;;;11.60;99.90;;;;;;6154415;23;20257;-87
2022/11/16 10:11:43;;;;;;;12.00;2.65;;;11.60;99.90;;;;;;6155481;23;19997;-86
2022/11/16 10:14:27;;;;;;;15.32;2.30;;;11.60;99.90;;;;;;6154604;23;20001;-86
2022/11/16 10:17:29;;;;;;;8.18;2.35;;;11.70;99.90;;;;;;6155737;23;20002;-87
2022/11/16 10:20:13;;;;;;;10.27;2.33;;;11.70;99.90;;;;;;6156124;23;19998;-86
2022/11/16 10:23:22;;;;;;;13.15;2.42;;;11.80;99.90;;;;;;6157141;23;20484;-86
2022/11/16 10:25:57;;;;;;;13.50;2.83;;;11.80;99.90;;;;;;6154456;23;20028;-86
2022/11/16 10:29:14;;;;;;;12.02;2.65;;;11.90;99.90;;;;;;6156337;23;20077;-83
2022/11/16 10:32:17;;;;;;;8.63;2.47;;;11.90;99.90;;;;;;6153054;23;20076;-83
2022/11/16 10:35:00;;;;;;;10.35;2.25;;;12.00;99.90;;;;;;6156270;23;20056;-83
2022/11/16 10:37:36;;;;;;;7.97;2.00;;;12.00;99.90;;;;;;6157997;23;20090;-83
2022/11/16 10:40:23;;;;;;;8.73;2.25;;;12.10;99.90;;;;;;6187408;23;20005;-84
2022/11/16 10:43:05;;;;;;;9.45;2.47;;;12.10;99.90;;;;;;6161163;23;20084;-82
2022/11/16 10:45:34;;;;;;;;;;;12.20;99.90;;;;;;6161626;23;19997;-82
2022/11/16 10:48:25;;;;;;;8.00;2.00;;;12.20;99.90;;;;;;6160979;23;20345;-83
2022/11/16 10:50:52;;;;;;;11.27;2.40;;;12.30;99.90;;;;;;6185872;23;20090;-83
2022/11/16 10:53:40;;;;;;;8.05;1.77;;;12.30;99.90;;;;;;6136391;23;20009;-84
2022/11/16 10:56:14;;;;;;;9.15;2.15;;;12.30;99.90;;;;;;6187408;23;20001;-83
2022/11/16 10:58:51;;;;;;;6.75;1.80;;;12.40;99.90;;;;;;6161188;23;20027;-84
2022/11/16 11:01:37;;;;;;;11.23;2.40;;;12.40;99.90;;;;;;6187135;23;20432;-84
2022/11/16 11:04:21;;;;;;;12.00;2.40;;;12.40;99.90;;;;;;6160434;23;20032;-84
2022/11/16 11:07:23;;;;;;;8.68;2.30;;;12.50;99.90;;;;;;6160391;23;20009;-84
2022/11/16 11:09:53;;;;;;;11.43;2.83;;;12.60;99.90;;;;;;6186035;23;20008;-84
2022/11/16 11:12:38;;;;;;;10.57;2.85;;;12.60;99.90;;;;;;6160391;23;20028;-83
2022/11/16 11:15:10;;;;;;;8.95;2.30;;;12.70;99.90;;;;;;6139299;23;20005;-86
2022/11/16 11:17:44;;;;;;;8.80;2.65;;;12.70;99.90;;;;;;6160746;23;20337;-86
2022/11/16 11:20:15;;;;;;;9.45;2.45;;;12.80;99.90;;;;;;6160369;23;20491;-86
2022/11/16 11:23:03;;;;;;;7.93;2.40;;;12.90;99.90;;;;;;6187410;23;19997;-86
2022/11/16 11:25:40;;;;;;;10.27;2.63;;;12.90;99.90;;;;;;6160850;23;19997;-87
2022/11/16 11:28:24;;;;;;;13.13;3.15;;;13.00;99.90;;;;;;6160993;23;20328;-86
2022/11/16 11:31:26;;;;;;;11.43;3.20;;;13.00;99.90;;;;;;6161368;23;20005;-86
2022/11/16 11:33:52;;;;;;;7.80;2.72;;;13.10;99.90;;;;;;6182439;23;20008;-83
2022/11/16 11:36:32;;;;;;;9.82;2.40;;;13.10;99.90;;;;;;6160550;23;20055;-86
2022/11/16 11:39:23;;;;;;;14.30;2.92;;;13.20;99.90;;;;;;6160545;23;20424;-86
2022/11/16 11:42:04;;;;;;;15.85;3.28;;;13.20;99.90;;;;;;6160718;23;20432;-87
2022/11/16 11:44:35;;;;;;;6.07;2.13;;;13.30;99.90;;;;;;6160712;23;20409;-86
2022/11/16 11:47:22;;;;;;;8.98;2.50;;;13.30;99.90;;;;;;6160747;23;20084;-86
2022/11/16 11:50:15;;;;;;;7.35;1.95;;;13.40;99.90;;;;;;6160704;23;20009;-86
2022/11/16 11:53:06;;;;;;;9.07;2.30;;;13.40;99.90;;;;;;6187364;23;20072;-87
2022/11/16 11:55:32;;;;;;;9.98;2.58;;;13.50;99.90;;;;;;6187343;23;19997;-87
2022/11/16 11:58:00;;;;;;;9.23;2.40;;;13.50;99.90;;;;;;6190260;23;20043;-85
2022/11/16 12:00:34;;;;;;;7.60;2.22;;;13.50;99.90;;;;;;6162073;23;20020;-87
2022/11/16 12:03:44;;;;;;;5.72;2.00;;;13.60;99.90;;;;;;6160762;23;20012;-86
2022/11/16 12:06:45;;;;;;;8.73;2.28;;;13.60;99.90;;;;;;6139247;23;20423;-88
2022/11/16 12:09:34;;;;;;;10.27;2.30;;;13.70;99.90;;;;;;6186837;23;20424;-87
2022/11/16 12:12:09;;;;;;;6.20;1.90;;;13.70;99.90;;;;;;6160556;23;20005;-88
2022/11/16 12:15:09;;;;;;;8.73;1.80;;;13.70;99.90;;;;;;6160512;23;20005;-87
2022/11/16 12:17:56;;;;;;;8.93;2.10;;;13.70;99.90;;;;;;6160398;23;20005;-87
2022/11/16 12:20:31;;;;;;;8.32;1.88;;;13.70;99.90;;;;;;6160429;23;20432;-88
2022/11/16 12:23:21;;;;;;;8.05;1.77;;;13.80;99.90;;;;;;6160535;23;20005;-85
2022/11/16 12:26:08;;;;;;;7.95;1.70;;;13.80;99.90;;;;;;6186402;23;20475;-84
2022/11/16 12:28:34;;;;;;;8.15;1.75;;;13.90;99.90;;;;;;6160023;23;20035;-84
2022/11/16 12:31:29;;;;;;;11.45;1.98;;;13.90;99.90;;;;;;6160024;23;20001;-83
2022/11/16 12:34:09;;;;;;;7.30;1.95;;;13.90;99.90;;;;;;6160078;23;20001;-84
2022/11/16 12:37:04;;;;;;;8.02;1.50;;;13.90;99.90;;;;;;6160167;23;20005;-83
2022/11/16 12:39:34;;;;;;;8.60;2.00;;;13.90;99.90;;;;;;6161908;23;20041;-88
2022/11/16 12:42:28;;;;;;;9.40;3.10;;;13.90;99.90;;;;;;6186779;23;20424;-86
2022/11/16 12:45:30;;;;;;;7.88;1.65;;;13.90;99.90;;;;;;6160185;23;20009;-85
2022/11/16 12:48:28;;;;;;;12.15;2.25;;;13.90;99.90;;;;;;6186406;23;20001;-87
2022/11/16 12:51:15;;;;;;;6.72;1.60;;;13.90;99.90;;;;;;6186743;23;20297;-86
2022/11/16 12:54:03;;;;;;;5.88;1.70;;;13.90;99.90;;;;;;6160172;23;20005;-86
2022/11/16 12:56:47;;;;;;;7.80;1.50;;;14.00;99.90;;;;;;6160038;23;20023;-83
2022/11/16 12:59:23;;;;;;;6.43;1.70;;;14.10;99.90;;;;;;6159860;23;20131;-83
2022/11/16 13:02:17;;;;;;;10.68;2.40;;;14.00;99.90;;;;;;6186206;23;20012;-83
2022/11/16 13:05:11;;;;;;;9.60;2.53;;;14.10;99.90;;;;;;6162327;23;20016;-83
2022/11/16 13:07:45;;;;;;;7.53;1.88;;;14.00;99.90;;;;;;6179007;23;20008;-82
2022/11/16 13:10:32;;;;;;;8.07;1.95;;;14.00;99.90;;;;;;6159670;23;20005;-82
2022/11/16 13:13:09;;;;;;;7.47;1.65;;;14.10;99.90;;;;;;6159854;23;20001;-86
2022/11/16 13:15:38;;;;;;;5.70;1.20;;;14.10;99.90;;;;;;6160552;23;20005;-86
2022/11/16 13:18:10;;;;;;;6.22;1.77;;;14.20;99.90;;;;;;6159767;23;20075;-85
2022/11/16 13:20:45;;;;;;;6.57;2.22;;;14.20;99.90;;;;;;6159879;23;20008;-86
2022/11/16 13:23:24;;;;;;;6.93;1.92;;;14.30;99.90;;;;;;6186263;23;20008;-86
2022/11/16 13:25:52;;;;;;;10.48;1.55;;;14.30;99.90;;;;;;6159611;23;20092;-85
2022/11/16 13:28:35;;;;;;;8.40;1.70;;;14.30;99.90;;;;;;6159787;23;20631;-85
2022/11/16 13:31:07;;;;;;;7.80;1.35;;;14.30;99.90;;;;;;6160381;23;20005;-85
2022/11/16 13:33:55;;;;;;;6.70;1.50;;;14.40;99.90;;;;;;6159672;23;20005;-85
2022/11/16 13:36:44;;;;;;;4.65;1.48;;;14.40;99.90;;;;;;6186072;23;20078;-86
2022/11/16 13:39:15;;;;;;;8.70;2.03;;;14.40;99.90;;;;;;6184903;23;20040;-86
2022/11/16 13:42:06;;;;;;;10.25;2.45;;;14.50;99.90;;;;;;6158262;23;20834;-85
2022/11/16 13:44:33;;;;;;;5.97;1.30;;;14.50;99.90;;;;;;6159385;23;20005;-85
2022/11/16 13:47:04;;;;;;;11.68;1.92;;;14.50;99.90;;;;;;6134435;23;20037;-81
2022/11/16 13:49:35;;;;;;;;;;;14.50;99.90;;;;;;6184467;23;20557;-81
2022/11/16 13:52:38;;;;;;;4.90;1.30;;;14.50;99.90;;;;;;6158924;23;19900;-81
2022/11/16 13:55:23;;;;;;;6.80;1.30;;;14.50;99.90;;;;;;6159198;23;20005;-81
2022/11/16 13:57:52;;;;;;;7.85;1.45;;;14.50;99.90;;;;;;6161385;23;20004;-81
2022/11/16 14:00:38;;;;;;;6.18;1.52;;;14.40;99.90;;;;;;6162457;23;20369;-81
2022/11/16 14:03:16;;;;;;;8.50;1.50;;;14.40;99.90;;;;;;6162540;23;20027;-85
2022/11/16 14:05:47;;;;;;;7.82;1.52;;;14.40;99.90;;;;;;6162625;23;20008;-84
2022/11/16 14:08:19;;;;;;;9.15;1.63;;;14.30;99.90;;;;;;6162901;23;20424;-84
2022/11/16 14:10:47;;;;;;;8.32;2.00;;;14.30;99.90;;;;;;6162554;23;20002;-84
2022/11/16 14:13:42;;;;;;;9.90;1.70;;;14.30;99.90;;;;;;6163006;23;20417;-85
2022/11/16 14:16:20;;;;;;;11.10;1.80;;;14.40;99.90;;;;;;6189452;23;20063;-85
2022/11/16 14:18:54;;;;;;;8.20;1.90;;;14.30;99.90;;;;;;6164525;23;20009;-84
2022/11/16 14:21:30;;;;;;;9.75;2.10;;;14.40;99.90;;;;;;6189698;23;20005;-84
2022/11/16 14:24:04;;;;;;;5.35;1.42;;;14.40;99.90;;;;;;6161975;23;20009;-84
2022/11/16 14:26:33;;;;;;;5.82;1.70;;;14.40;99.90;;;;;;6162409;23;20015;-84
2022/11/16 14:29:14;;;;;;;10.23;1.95;;;14.40;99.90;;;;;;6162973;23;20379;-84
2022/11/16 14:31:51;;;;;;;10.18;1.80;;;14.40;99.90;;;;;;6161380;23;20028;-84
2022/11/16 14:34:40;;;;;;;7.93;1.70;;;14.50;99.90;;;;;;6189143;23;20012;-84
2022/11/16 14:37:13;;;;;;;7.00;1.63;;;14.50;99.90;;;;;;6189127;23;20005;-86
2022/11/16 14:39:42;;;;;;;9.00;1.75;;;14.40;99.90;;;;;;6157447;23;20096;-84
2022/11/16 14:42:21;;;;;;;6.70;1.60;;;14.40;99.90;;;;;;6133384;23;20009;-85
2022/11/16 14:44:48;;;;;;;6.18;1.73;;;14.40;99.90;;;;;;6157434;23;20095;-84
2022/11/16 14:47:24;;;;;;;9.15;1.60;;;14.40;99.90;;;;;;6159217;23;20092;-84
2022/11/16 14:49:50;;;;;;;5.75;1.15;;;14.40;99.90;;;;;;6157570;23;20005;-85
2022/11/16 14:52:22;;;;;;;5.80;2.03;;;14.40;99.90;;;;;;6157602;23;20006;-84
2022/11/16 14:54:55;;;;;;;6.45;1.35;;;14.40;99.90;;;;;;6157604;23;20001;-81
2022/11/16 14:57:23;;;;;;;5.07;1.25;;;14.40;99.90;;;;;;6157427;23;20002;-81
2022/11/16 15:00:05;;;;;;;9.48;1.95;;;14.40;99.90;;;;;;6159214;23;20001;-82
2022/11/16 15:02:31;;;;;;;7.90;1.50;;;14.50;99.90;;;;;;6157399;23;20092;-84
2022/11/16 15:04:57;;;;;;;5.28;1.38;;;14.50;99.90;;;;;;6133480;23;20019;-87
2022/11/16 15:07:25;;;;;;;6.57;1.30;;;14.50;99.90;;;;;;6133164;23;20085;-86
2022/11/16 15:09:54;;;;;;;8.32;1.80;;;14.50;99.90;;;;;;6157145;23;20006;-84
2022/11/16 15:12:41;;;;;;;8.77;1.63;;;14.50;99.90;;;;;;6157409;23;19997;-84
2022/11/16 15:15:21;;;;;;;7.50;1.80;;;14.50;99.90;;;;;;6159041;23;20005;-86
2022/11/16 15:17:59;;;;;;;6.32;1.50;;;14.60;99.90;;;;;;6156171;23;20040;-85
2022/11/16 15:20:28;;;;;;;8.70;1.58;;;14.60;99.90;;;;;;6157783;23;20005;-85
2022/11/16 15:22:56;;;;;;;7.80;1.60;;;14.60;99.90;;;;;;6158013;23;20028;-85
2022/11/16 15:25:29;;;;;;;5.20;1.50;;;14.60;99.90;;;;;;6156169;23;20009;-85
2022/11/16 15:27:57;;;;;;;7.57;1.65;;;14.60;99.90;;;;;;6157525;23;20016;-83
2022/11/16 15:30:29;;;;;;;6.18;1.45;;;14.60;99.90;;;;;;6132000;23;20005;-84
2022/11/16 15:32:54;;;;;;;8.45;2.08;;;14.60;99.90;;;;;;6156010;23;20008;-84
2022/11/16 15:35:27;;;;;;;9.95;1.85;;;14.60;99.90;;;;;;6156128;23;20333;-84
2022/11/16 15:38:17;;;;;;;6.30;1.65;;;14.60;99.90;;;;;;6161613;23;20111;-84
2022/11/16 15:41:07;;;;;;;9.65;2.35;;;14.60;99.90;;;;;;6160783;23;19993;-83
2022/11/16 15:43:40;;;;;;;5.88;1.30;;;14.60;99.90;;;;;;6153315;23;20001;-83
2022/11/16 15:46:07;;;;;;;6.25;1.52;;;14.60;99.90;;;;;;6187375;23;20047;-84
2022/11/16 15:48:37;;;;;;;6.32;1.60;;;14.60;99.90;;;;;;6111940;23;20036;-84
2022/11/16 15:51:03;;;;;;;9.82;1.85;;;14.50;99.90;;;;;;6161653;23;20023;-83
2022/11/16 15:53:42;;;;;;;6.28;1.67;;;14.60;99.90;;;;;;6163054;23;20365;-84
2022/11/16 15:56:24;;;;;;;8.75;1.77;;;14.50;99.90;;;;;;6160685;23;20024;-84
2022/11/16 15:58:51;;;;;;;7.70;1.52;;;14.50;99.90;;;;;;6186794;23;20005;-84
2022/11/16 16:01:17;;;;;;;6.70;1.50;;;14.50;99.90;;;;;;6187647;23;20005;-84
2022/11/16 16:04:04;;;;;;;8.45;1.80;;;14.40;99.90;;;;;;6160681;23;20063;-84
2022/11/16 16:06:52;;;;;;;6.90;1.90;;;14.40;99.90;;;;;;6187932;23;20001;-84
2022/11/16 16:09:27;;;;;;;6.93;1.40;;;14.40;99.90;;;;;;6162566;23;20009;-85
2022/11/16 16:12:13;;;;;;;8.43;2.25;;;14.30;99.90;;;;;;6186822;23;20031;-85